Sia — ZGCJ3 — position and weather

sailwx.info

Track history (hours):
 
Tides and Currents Weather Stations Pressure Air Temp Water Temp Dewpoint Dewpoint Depression Visibility Wind Speed Wind Dir Waves Ship Positions

Sia

Last reported at 2015-Jun-30 06:30 UTC. Time now 2015-Jul-06 00:57 UTC.
Position N 36°27' W 002°41'.

Length 34 m; draft 2.4 m.

Type: Pleasure craft. MMSI: 319042600.

Date/timePositionNaut miles runAvg speedWind from/ knotsBaromVisibWave heightAir tempDewpointWater temp
2015-Jun-30 06:30N 36°27' W 002°41'4312.8
2015-Jun-30 03:08N 36°39' W 001°50'1113.5
2015-Jun-30 02:20N 36°46' W 001°39'2813.6
2015-Jun-30 00:14N 37°02' W 001°10'1213.4
2015-Jun-29 23:19N 37°09' W 000°58'1113.5
2015-Jun-29 22:32N 37°15' W 000°47'1313.3
2015-Jun-29 21:33N 37°23' W 000°33'1413.6
2015-Jun-29 20:31N 37°31' W 000°19'1313.4
2015-Jun-29 19:33N 37°39' W 000°06'1313.4
2015-Jun-29 18:33N 37°49' E 000°06'1313.2
2015-Jun-29 17:34N 37°58' E 000°18'1413.6
2015-Jun-29 16:33N 38°08' E 000°30'1312.9
2015-Jun-29 15:33N 38°17' E 000°42'1313.2
2015-Jun-29 14:33N 38°26' E 000°54'1413.5
2015-Jun-29 13:33N 38°35' E 001°07'1313.0
2015-Jun-29 12:33N 38°44' E 001°19'1212.4
2015-Jun-29 11:33N 38°55' E 001°27'  
Track history (hours):
 
Tides and Currents Weather Stations Pressure Air Temp Water Temp Dewpoint Dewpoint Depression Visibility Wind Speed Wind Dir Waves Ship Positions

Sia

Last reported at 2015-Jun-30 06:30 UTC. Time now 2015-Jul-06 00:57 UTC.
Position N 36°27' W 002°41'.

Length 34 m; draft 2.4 m.

Type: Pleasure craft. MMSI: 319042600.

Date/timePositionNaut miles runAvg speedWind from/ knotsBaromVisibWave heightAir tempDewpointWater temp
2015-Jun-30 06:30N 36°27' W 002°41'4312.8
2015-Jun-30 03:08N 36°39' W 001°50'1113.5
2015-Jun-30 02:20N 36°46' W 001°39'2813.6
2015-Jun-30 00:14N 37°02' W 001°10'1213.4
2015-Jun-29 23:19N 37°09' W 000°58'1113.5
2015-Jun-29 22:32N 37°15' W 000°47'1313.3
2015-Jun-29 21:33N 37°23' W 000°33'1413.6
2015-Jun-29 20:31N 37°31' W 000°19'1313.4
2015-Jun-29 19:33N 37°39' W 000°06'1313.4
2015-Jun-29 18:33N 37°49' E 000°06'1313.2
2015-Jun-29 17:34N 37°58' E 000°18'1413.6
2015-Jun-29 16:33N 38°08' E 000°30'1312.9
2015-Jun-29 15:33N 38°17' E 000°42'1313.2
2015-Jun-29 14:33N 38°26' E 000°54'1413.5
2015-Jun-29 13:33N 38°35' E 001°07'1313.0
2015-Jun-29 12:33N 38°44' E 001°19'1212.4
2015-Jun-29 11:33N 38°55' E 001°27'  

Dump ship's entire track history